Terminal Aerodrome Forecast
Issued by NWS Shreveport, LA

Home | Current Version | Previous Version | Text Only | Print | Product List | Glossary On
Versions: 1 2 3 4 5 6 7 8 9 10 11 12 13
731
FTUS44 KSHV 291215 AAA
TAFMLU
TAF AMD
KMLU 291215Z 2912/3012 14006KT P6SM BKN008 BKN013 OVC030
     FM291400 16010G18KT P6SM BKN015 OVC030
     FM291700 16013G23KT P6SM SCT035 BKN250
     FM292100 17013G23KT P6SM SCT050 BKN250
     FM300000 17012KT P6SM VCTS SCT050CB BKN250
     FM300500 VRB20G30KT 4SM TSRA BR OVC030CB=

USA.gov is the U.S. government's official web portal to all federal, state and local government web resources and services.